createdAt,value
2019-05-17T00:01:57.771Z,10.83
2019-05-17T00:05:02.557Z,10.87
2019-05-17T00:08:07.721Z,12.10
2019-05-17T00:11:12.608Z,11.83
2019-05-17T00:14:16.981Z,11.40
2019-05-17T00:17:21.337Z,11.33
2019-05-17T00:20:26.611Z,11.60
2019-05-17T00:23:32.574Z,12.30
2019-05-17T00:26:39.677Z,10.33
2019-05-17T00:29:43.358Z,11.17
2019-05-17T00:32:47.831Z,10.50
2019-05-17T00:35:52.221Z,11.23
2019-05-17T00:38:56.857Z,12.27
2019-05-17T00:42:01.353Z,12.53
2019-05-17T00:45:06.835Z,13.20
2019-05-17T00:48:11.885Z,13.50
2019-05-17T00:51:16.876Z,13.73
2019-05-17T00:54:26.774Z,14.77
2019-05-17T00:57:30.449Z,13.93
2019-05-17T01:00:37.252Z,13.37
2019-05-17T01:03:40.830Z,14.13
2019-05-17T01:06:46.895Z,16.50
2019-05-17T01:09:51.125Z,15.87
2019-05-17T01:12:57.424Z,19.70
2019-05-17T01:16:01.500Z,17.87
2019-05-17T01:19:26.978Z,19.47
2019-05-17T01:22:31.757Z,17.60
2019-05-17T01:25:37.062Z,17.90
2019-05-17T01:28:41.426Z,16.93
2019-05-17T01:31:46.474Z,18.83
2019-05-17T01:34:51.009Z,17.03
2019-05-17T01:37:56.515Z,17.70
2019-05-17T01:41:02.141Z,18.77
2019-05-17T01:44:07.679Z,14.50
2019-05-17T01:47:11.990Z,15.13
2019-05-17T01:50:17.586Z,14.90
2019-05-17T01:53:22.439Z,13.97
2019-05-17T01:56:27.131Z,16.13
2019-05-17T01:59:31.477Z,15.37
2019-05-17T02:02:38.809Z,13.40
2019-05-17T02:05:43.536Z,13.77
2019-05-17T02:08:48.220Z,13.07
2019-05-17T02:11:52.563Z,13.97
2019-05-17T02:14:57.812Z,13.23
2019-05-17T02:18:02.212Z,14.20
2019-05-17T02:21:07.049Z,13.93
2019-05-17T02:24:11.492Z,13.30
2019-05-17T02:27:17.626Z,13.67
2019-05-17T02:30:23.247Z,13.73
2019-05-17T02:33:28.579Z,14.90
2019-05-17T02:36:33.678Z,14.10
2019-05-17T02:39:56.530Z,15.37
2019-05-17T02:42:45.052Z,14.60
2019-05-17T02:45:52.465Z,14.03
2019-05-17T02:48:55.887Z,13.90
2019-05-17T02:52:03.301Z,13.93
2019-05-17T02:55:06.944Z,13.67
2019-05-17T02:58:13.093Z,13.13
2019-05-17T03:01:17.390Z,13.43
2019-05-17T03:04:23.669Z,12.97
2019-05-17T03:07:28.196Z,14.57
2019-05-17T03:10:33.482Z,12.83
2019-05-17T03:13:38.302Z,13.67
2019-05-17T03:16:43.274Z,13.13
2019-05-17T03:19:48.165Z,12.73
2019-05-17T03:22:52.830Z,13.73
2019-05-17T03:25:57.231Z,13.13
2019-05-17T03:29:03.338Z,14.20
2019-05-17T03:32:11.247Z,14.83
2019-05-17T03:35:17.484Z,13.07
2019-05-17T03:38:22.782Z,13.63
2019-05-17T03:41:29.226Z,14.37
2019-05-17T03:44:33.939Z,13.73
2019-05-17T03:47:38.283Z,15.13
2019-05-17T03:50:43.586Z,13.97
2019-05-17T03:53:48.501Z,15.93
2019-05-17T03:56:53.473Z,14.77
2019-05-17T03:59:58.643Z,18.70
2019-05-17T04:03:03.289Z,18.20
2019-05-17T04:06:08.234Z,17.13
2019-05-17T04:09:13.756Z,16.23
2019-05-17T04:12:22.868Z,15.63
2019-05-17T04:15:25.421Z,15.77
2019-05-17T04:18:29.732Z,15.73
2019-05-17T04:21:34.534Z,17.17
2019-05-17T04:24:38.862Z,15.53
2019-05-17T04:27:44.191Z,19.20
2019-05-17T04:30:48.689Z,14.73
2019-05-17T04:33:53.781Z,15.90
2019-05-17T04:36:58.306Z,14.07
2019-05-17T04:40:03.686Z,14.73
2019-05-17T04:43:09.151Z,16.90
2019-05-17T04:46:13.456Z,16.17
2019-05-17T04:49:17.845Z,13.97
2019-05-17T04:52:22.816Z,14.63
2019-05-17T04:55:27.753Z,14.50
2019-05-17T04:58:33.416Z,12.57
2019-05-17T05:01:38.119Z,13.30
2019-05-17T05:04:43.578Z,14.03
2019-05-17T05:07:48.173Z,13.20
2019-05-17T05:10:53.720Z,12.40
2019-05-17T05:13:58.096Z,13.67
2019-05-17T05:17:02.772Z,9.87
2019-05-17T05:20:08.245Z,10.80
2019-05-17T05:23:13.163Z,9.67
2019-05-17T05:26:18.098Z,9.03
2019-05-17T05:29:22.809Z,9.77
2019-05-17T05:32:27.137Z,8.37
2019-05-17T05:35:31.841Z,8.93
2019-05-17T05:38:36.347Z,7.90
2019-05-17T05:41:42.660Z,8.53
2019-05-17T05:44:46.737Z,7.83
2019-05-17T05:47:52.153Z,8.73
2019-05-17T05:50:57.010Z,9.00
2019-05-17T05:54:01.840Z,7.80
2019-05-17T05:57:06.270Z,7.27
2019-05-17T06:00:13.116Z,9.17
2019-05-17T06:03:17.454Z,9.80
2019-05-17T06:06:22.185Z,9.40
2019-05-17T06:09:26.807Z,8.80
2019-05-17T06:12:32.245Z,10.60
2019-05-17T06:15:37.041Z,11.07
2019-05-17T06:18:42.484Z,10.40
2019-05-17T06:21:47.384Z,11.43
2019-05-17T06:24:52.223Z,12.23
2019-05-17T06:27:56.539Z,10.97
2019-05-17T06:31:02.989Z,10.67
2019-05-17T06:34:07.357Z,10.77
2019-05-17T06:37:13.299Z,10.70
2019-05-17T06:40:18.281Z,10.27
2019-05-17T06:43:23.333Z,10.47
2019-05-17T06:46:28.097Z,10.47
2019-05-17T06:49:32.832Z,8.93
2019-05-17T06:52:37.154Z,9.57
2019-05-17T06:55:42.760Z,9.60
2019-05-17T06:58:47.574Z,7.63
2019-05-17T07:01:52.924Z,7.63
2019-05-17T07:05:01.485Z,7.57
2019-05-17T07:08:06.335Z,7.60
2019-05-17T07:11:11.060Z,7.67
2019-05-17T07:14:15.831Z,7.40
2019-05-17T07:17:20.195Z,8.07
2019-05-17T07:20:24.530Z,7.80
2019-05-17T07:23:31.980Z,7.60
2019-05-17T07:26:36.322Z,9.43
2019-05-17T07:29:42.086Z,7.33
2019-05-17T07:32:46.968Z,6.87
2019-05-17T07:35:51.712Z,6.90
2019-05-17T07:38:57.888Z,6.10
2019-05-17T07:42:02.884Z,6.50
2019-05-17T07:45:10.163Z,5.93
2019-05-17T07:48:13.886Z,5.90
2019-05-17T07:51:19.489Z,6.93
2019-05-17T07:54:24.660Z,6.00
2019-05-17T07:57:29.944Z,5.57
2019-05-17T08:00:34.451Z,6.40
2019-05-17T08:03:40.543Z,5.67
2019-05-17T08:06:50.451Z,4.97
2019-05-17T08:09:53.919Z,4.50
2019-05-17T08:12:59.886Z,5.00
2019-05-17T08:16:04.750Z,4.30
2019-05-17T08:19:09.743Z,4.50
2019-05-17T08:22:14.633Z,4.80
2019-05-17T08:25:20.037Z,4.30
2019-05-17T08:28:27.207Z,5.00
2019-05-17T08:31:31.109Z,4.60
2019-05-17T08:34:35.741Z,4.77
2019-05-17T08:37:42.268Z,5.03
2019-05-17T08:40:46.470Z,5.53
2019-05-17T08:43:51.524Z,5.00
2019-05-17T08:46:56.219Z,4.60
2019-05-17T08:50:00.726Z,5.10
2019-05-17T08:53:05.646Z,5.10
2019-05-17T08:56:10.167Z,4.60
2019-05-17T08:59:14.541Z,4.50
2019-05-17T09:02:21.607Z,4.07
2019-05-17T09:05:26.567Z,3.93
2019-05-17T09:08:30.949Z,4.00
2019-05-17T09:11:36.932Z,6.10
2019-05-17T09:14:41.578Z,4.30
2019-05-17T09:17:45.891Z,3.57
2019-05-17T09:20:50.306Z,3.83
2019-05-17T09:23:54.628Z,3.73
2019-05-17T09:26:59.879Z,3.50
2019-05-17T09:30:04.577Z,4.13
2019-05-17T09:33:12.268Z,4.00
2019-05-17T09:36:17.041Z,4.63
2019-05-17T09:39:21.557Z,4.70
2019-05-17T09:42:25.817Z,4.60
2019-05-17T09:45:30.668Z,4.57
2019-05-17T09:48:35.103Z,5.10
2019-05-17T09:51:39.693Z,5.30
2019-05-17T09:54:45.405Z,4.70
2019-05-17T09:57:49.964Z,4.70
2019-05-17T10:00:54.266Z,4.93
2019-05-17T10:03:59.851Z,5.53
2019-05-17T10:07:06.477Z,5.60
2019-05-17T10:10:11.626Z,5.07
2019-05-17T10:13:15.943Z,5.50
2019-05-17T10:16:20.905Z,5.13
2019-05-17T10:19:25.224Z,5.30
2019-05-17T10:22:30.377Z,5.33
2019-05-17T10:25:35.371Z,5.70
2019-05-17T10:28:40.176Z,5.90
2019-05-17T10:31:44.591Z,5.50
2019-05-17T10:34:49.554Z,6.60
2019-05-17T10:37:53.866Z,6.30
2019-05-17T10:40:58.099Z,6.47
2019-05-17T10:44:02.890Z,6.20
2019-05-17T10:47:09.953Z,5.90
2019-05-17T10:50:14.220Z,6.73
2019-05-17T10:53:20.452Z,6.90
2019-05-17T10:56:25.406Z,6.90
2019-05-17T10:59:30.238Z,7.10
2019-05-17T11:02:34.525Z,7.70
2019-05-17T11:05:40.147Z,6.97
2019-05-17T11:08:44.882Z,7.07
2019-05-17T11:11:49.689Z,8.73
2019-05-17T11:15:10.440Z,8.90
2019-05-17T11:18:02.938Z,8.13
2019-05-17T11:21:07.468Z,7.90
2019-05-17T11:24:11.784Z,8.20
2019-05-17T11:27:16.930Z,10.10
2019-05-17T11:30:21.358Z,8.87
2019-05-17T11:33:25.724Z,7.90
2019-05-17T11:36:30.417Z,7.60
2019-05-17T11:39:35.137Z,6.90
2019-05-17T11:42:40.531Z,8.17
2019-05-17T11:45:44.926Z,6.87
2019-05-17T11:48:49.245Z,6.80
2019-05-17T11:52:12.653Z,7.27
2019-05-17T11:55:18.518Z,7.80
2019-05-17T11:58:22.892Z,6.73
2019-05-17T12:01:27.302Z,7.00
2019-05-17T12:04:31.709Z,7.00
2019-05-17T12:07:36.149Z,6.43
2019-05-17T12:10:40.525Z,6.20
2019-05-17T12:13:45.145Z,6.63
2019-05-17T12:16:49.427Z,7.90
2019-05-17T12:19:53.787Z,6.93
2019-05-17T12:22:58.128Z,7.07
2019-05-17T12:26:21.616Z,6.00
2019-05-17T12:29:25.990Z,6.20
2019-05-17T12:32:30.285Z,6.23
2019-05-17T12:35:34.630Z,6.60
2019-05-17T12:38:38.925Z,5.53
2019-05-17T12:41:43.345Z,5.37
2019-05-17T12:44:47.712Z,5.03
2019-05-17T12:47:52.095Z,5.20
2019-05-17T12:50:56.412Z,5.10
2019-05-17T12:54:00.810Z,5.50
2019-05-17T12:57:05.361Z,5.87
2019-05-17T13:00:10.357Z,5.40
2019-05-17T13:03:14.679Z,5.00
2019-05-17T13:06:19.263Z,5.60
2019-05-17T13:09:23.591Z,5.07
2019-05-17T13:12:27.954Z,5.43
2019-05-17T13:15:33.188Z,7.57
2019-05-17T13:18:37.485Z,5.83
2019-05-17T13:21:42.650Z,5.27
2019-05-17T13:24:46.994Z,5.23
2019-05-17T13:27:51.319Z,4.97
2019-05-17T13:30:59.678Z,5.20
2019-05-17T13:34:04.387Z,5.03
2019-05-17T13:37:08.745Z,5.60
2019-05-17T13:40:13.137Z,5.60
2019-05-17T13:43:18.288Z,6.03
2019-05-17T13:46:32.764Z,6.00
2019-05-17T13:49:29.876Z,6.30
2019-05-17T13:52:36.347Z,6.63
2019-05-17T13:55:41.225Z,6.63
2019-05-17T13:58:45.612Z,6.10
2019-05-17T14:01:49.905Z,6.53
2019-05-17T14:04:54.985Z,5.93
2019-05-17T14:07:59.302Z,5.37
2019-05-17T14:11:03.705Z,5.33
2019-05-17T14:14:08.277Z,5.37
2019-05-17T14:17:13.017Z,5.57
2019-05-17T14:20:17.631Z,4.70
2019-05-17T14:23:24.053Z,6.93
2019-05-17T14:26:28.343Z,4.73
2019-05-17T14:29:33.133Z,4.23
2019-05-17T14:32:38.105Z,5.37
2019-05-17T14:35:42.518Z,5.13
2019-05-17T14:38:46.902Z,5.17
2019-05-17T14:41:51.240Z,4.47
2019-05-17T14:44:55.684Z,5.27
2019-05-17T14:47:59.901Z,5.10
2019-05-17T14:51:04.245Z,4.13
2019-05-17T14:54:08.634Z,4.30
2019-05-17T14:57:14.072Z,4.37
2019-05-17T15:00:19.613Z,4.10
2019-05-17T15:03:27.003Z,5.40
2019-05-17T15:06:31.363Z,5.37
2019-05-17T15:09:35.771Z,4.83
2019-05-17T15:12:40.134Z,4.07
2019-05-17T15:15:44.524Z,4.20
2019-05-17T15:18:48.905Z,33.63
2019-05-17T15:21:53.342Z,10.63
2019-05-17T15:24:57.674Z,7.30
2019-05-17T15:28:02.070Z,6.23
2019-05-17T15:31:08.323Z,5.17
2019-05-17T15:34:12.698Z,5.93
2019-05-17T15:37:17.103Z,5.60
2019-05-17T15:40:27.707Z,6.33
2019-05-17T15:43:32.088Z,5.73
2019-05-17T15:46:36.482Z,5.00
2019-05-17T15:49:40.868Z,5.33
2019-05-17T15:52:45.221Z,4.33
2019-05-17T15:55:49.608Z,4.13
2019-05-17T15:59:00.035Z,4.17
2019-05-17T16:02:04.373Z,4.80
2019-05-17T16:05:09.184Z,6.80
2019-05-17T16:08:13.405Z,5.13
2019-05-17T16:11:17.670Z,4.70
2019-05-17T16:14:22.040Z,5.10
2019-05-17T16:17:26.426Z,5.40
2019-05-17T16:20:30.784Z,5.33
2019-05-17T16:23:35.165Z,5.67
2019-05-17T16:26:39.478Z,4.07
2019-05-17T16:29:43.825Z,4.53
2019-05-17T16:32:48.328Z,4.67
2019-05-17T16:35:58.556Z,4.33
2019-05-17T16:39:09.304Z,4.70
2019-05-17T16:42:13.770Z,4.63
2019-05-17T16:45:19.755Z,5.57
2019-05-17T16:48:24.237Z,5.40
2019-05-17T16:51:28.534Z,7.10
2019-05-17T16:54:32.802Z,6.50
2019-05-17T16:57:37.164Z,6.50
2019-05-17T17:00:42.588Z,8.00
2019-05-17T17:03:46.914Z,6.73
2019-05-17T17:06:51.301Z,6.93
2019-05-17T17:09:55.648Z,6.97
2019-05-17T17:13:00.036Z,7.70
2019-05-17T17:16:04.963Z,7.73
2019-05-17T17:19:09.289Z,7.73
2019-05-17T17:22:13.673Z,6.60
2019-05-17T17:25:18.056Z,5.77
2019-05-17T17:28:25.366Z,6.23
2019-05-17T17:31:28.693Z,5.97
2019-05-17T17:34:35.002Z,5.50
2019-05-17T17:37:39.474Z,6.33
2019-05-17T17:40:46.114Z,5.93
2019-05-17T17:43:58.444Z,5.67
2019-05-17T17:46:58.701Z,4.77
2019-05-17T17:50:03.389Z,5.73
2019-05-17T17:53:08.422Z,5.07
2019-05-17T17:56:13.784Z,4.67
2019-05-17T17:59:18.205Z,4.93
2019-05-17T18:02:22.588Z,4.10
2019-05-17T18:05:26.922Z,3.90
2019-05-17T18:08:34.528Z,4.07
2019-05-17T18:11:41.769Z,4.17
2019-05-17T18:14:47.921Z,3.53
2019-05-17T18:18:11.361Z,3.33
2019-05-17T18:21:15.830Z,3.50
2019-05-17T18:24:20.172Z,3.07
2019-05-17T18:27:24.946Z,2.67
2019-05-17T18:30:29.393Z,3.57
2019-05-17T18:33:33.764Z,2.60
2019-05-17T18:36:38.615Z,2.50
2019-05-17T18:39:43.083Z,3.13
2019-05-17T18:42:47.349Z,2.80
2019-05-17T18:45:51.701Z,2.60
2019-05-17T18:48:56.031Z,5.53
2019-05-17T18:52:00.287Z,3.87
2019-05-17T18:55:05.784Z,3.20
2019-05-17T18:58:10.511Z,3.30
2019-05-17T19:01:14.932Z,3.47
2019-05-17T19:04:19.280Z,3.10
2019-05-17T19:07:23.648Z,3.13
2019-05-17T19:10:30.308Z,3.13
2019-05-17T19:13:35.068Z,3.00
2019-05-17T19:16:39.795Z,2.57
2019-05-17T19:19:44.121Z,2.30
2019-05-17T19:22:48.452Z,2.20
2019-05-17T19:25:52.809Z,3.20
2019-05-17T19:28:57.168Z,6.13
2019-05-17T19:32:01.693Z,4.77
2019-05-17T19:35:07.090Z,5.43
2019-05-17T19:38:11.419Z,4.30
2019-05-17T19:41:16.123Z,6.97
2019-05-17T19:44:20.741Z,4.20
2019-05-17T19:47:25.097Z,2.87
2019-05-17T19:50:29.437Z,2.90
2019-05-17T19:53:33.823Z,4.93
2019-05-17T19:56:38.213Z,9.83
2019-05-17T19:59:42.551Z,8.00
2019-05-17T20:02:47.209Z,9.03
2019-05-17T20:05:51.654Z,5.57
2019-05-17T20:08:56.447Z,3.80
2019-05-17T20:12:01.028Z,2.47
2019-05-17T20:15:16.622Z,2.67
2019-05-17T20:18:12.011Z,2.83
2019-05-17T20:21:18.325Z,2.73
2019-05-17T20:24:22.876Z,2.40
2019-05-17T20:27:27.679Z,2.80
2019-05-17T20:30:32.009Z,2.50
2019-05-17T20:33:36.396Z,2.43
2019-05-17T20:36:40.969Z,2.70
2019-05-17T20:39:45.263Z,2.23
2019-05-17T20:42:49.695Z,2.30
2019-05-17T20:45:54.066Z,2.00
2019-05-17T20:48:58.466Z,2.17
2019-05-17T20:52:02.862Z,2.73
2019-05-17T20:55:07.879Z,2.30
2019-05-17T20:58:12.270Z,2.73
2019-05-17T21:01:16.627Z,2.87
2019-05-17T21:04:20.934Z,2.30
2019-05-17T21:07:25.395Z,2.63
2019-05-17T21:10:29.719Z,2.43
2019-05-17T21:13:34.048Z,2.73
2019-05-17T21:16:38.850Z,3.10
2019-05-17T21:19:43.194Z,2.50
2019-05-17T21:22:47.537Z,3.53
2019-05-17T21:25:51.805Z,3.87
2019-05-17T21:28:56.106Z,3.30
2019-05-17T21:32:00.410Z,3.00
2019-05-17T21:35:04.894Z,2.77
2019-05-17T21:38:09.183Z,3.23
2019-05-17T21:41:13.524Z,2.50
2019-05-17T21:44:20.940Z,2.50
2019-05-17T21:47:25.225Z,2.80
2019-05-17T21:50:29.473Z,2.60
2019-05-17T21:53:33.796Z,3.13
2019-05-17T21:56:38.146Z,2.50
2019-05-17T21:59:42.451Z,2.43
2019-05-17T22:02:46.757Z,2.57
2019-05-17T22:05:51.099Z,2.60
2019-05-17T22:08:55.482Z,2.67
2019-05-17T22:12:02.850Z,2.70
2019-05-17T22:15:07.200Z,2.67
2019-05-17T22:18:11.555Z,3.03
2019-05-17T22:21:15.956Z,2.87
2019-05-17T22:24:20.255Z,2.50
2019-05-17T22:27:24.596Z,2.57
2019-05-17T22:30:28.868Z,2.30
2019-05-17T22:33:33.240Z,2.33
2019-05-17T22:36:37.471Z,2.30
2019-05-17T22:39:41.782Z,2.67
2019-05-17T22:42:47.211Z,3.13
2019-05-17T22:45:51.634Z,2.23
2019-05-17T22:48:56.336Z,2.07
2019-05-17T22:52:00.719Z,2.27
2019-05-17T22:55:05.273Z,2.40
2019-05-17T22:58:09.557Z,2.10
2019-05-17T23:01:13.916Z,2.83
2019-05-17T23:04:18.340Z,2.40
2019-05-17T23:07:28.938Z,2.10
2019-05-17T23:10:35.182Z,2.77
2019-05-17T23:13:40.837Z,2.50
2019-05-17T23:16:51.513Z,2.60
2019-05-17T23:19:51.255Z,2.57
2019-05-17T23:22:55.699Z,2.90
2019-05-17T23:26:00.061Z,3.43
2019-05-17T23:29:04.409Z,2.50
2019-05-17T23:32:08.767Z,2.73
2019-05-17T23:35:13.077Z,2.57
2019-05-17T23:38:17.390Z,2.27
2019-05-17T23:41:21.734Z,2.87
2019-05-17T23:44:26.046Z,3.00
2019-05-17T23:47:31.460Z,2.60
2019-05-17T23:50:35.723Z,2.63
2019-05-17T23:53:40.071Z,3.00
2019-05-17T23:56:44.456Z,3.43
2019-05-17T23:59:48.791Z,3.70
